Terminal Aerodrome Forecast
Issued by NWS

Home | Current Version | Previous Version | Text Only | Print | Product List | Glossary On
Versions: 1 2 3 4 5 6 7 8 9 10 11 12
000
FTUS46 KSGX 220520
TAFTRM
TAF
KTRM 220520Z 2206/2306 33012G22KT P6SM SKC
     FM221600 33010KT P6SM FEW200
     FM222200 31015G25KT P6SM FEW200=

USA.gov is the U.S. government's official web portal to all federal, state and local government web resources and services.